sensor_id;sensor_type;location;lat;lon;timestamp;P1;durP1;ratioP1;P2;durP2;ratioP2
4857;SDS011;58975;51.978;8.472;2022-11-06T00:02:59;7.93;;;4.25;;
4857;SDS011;58975;51.978;8.472;2022-11-06T00:07:56;9.95;;;4.38;;
4857;SDS011;58975;51.978;8.472;2022-11-06T00:12:52;11.27;;;4.38;;
4857;SDS011;58975;51.978;8.472;2022-11-06T00:17:49;7.35;;;3.58;;
4857;SDS011;58975;51.978;8.472;2022-11-06T00:22:45;10.88;;;4.78;;
4857;SDS011;58975;51.978;8.472;2022-11-06T00:27:42;6.75;;;4.70;;
4857;SDS011;58975;51.978;8.472;2022-11-06T00:32:39;9.70;;;4.82;;
4857;SDS011;58975;51.978;8.472;2022-11-06T00:37:35;10.38;;;4.05;;
4857;SDS011;58975;51.978;8.472;2022-11-06T00:42:32;10.93;;;4.60;;
4857;SDS011;58975;51.978;8.472;2022-11-06T00:47:28;11.20;;;4.13;;
4857;SDS011;58975;51.978;8.472;2022-11-06T00:52:24;7.13;;;4.68;;
4857;SDS011;58975;51.978;8.472;2022-11-06T00:57:21;9.55;;;4.88;;
4857;SDS011;58975;51.978;8.472;2022-11-06T01:02:17;5.22;;;4.05;;
4857;SDS011;58975;51.978;8.472;2022-11-06T01:07:14;7.28;;;4.07;;
4857;SDS011;58975;51.978;8.472;2022-11-06T01:12:11;7.20;;;4.80;;
4857;SDS011;58975;51.978;8.472;2022-11-06T01:17:09;10.75;;;4.97;;
4857;SDS011;58975;51.978;8.472;2022-11-06T01:22:06;8.65;;;4.75;;
4857;SDS011;58975;51.978;8.472;2022-11-06T01:27:02;9.82;;;4.68;;
4857;SDS011;58975;51.978;8.472;2022-11-06T01:32:19;10.95;;;5.05;;
4857;SDS011;58975;51.978;8.472;2022-11-06T01:37:15;7.65;;;5.15;;
4857;SDS011;58975;51.978;8.472;2022-11-06T01:42:12;9.30;;;4.53;;
4857;SDS011;58975;51.978;8.472;2022-11-06T01:47:43;12.35;;;4.55;;
4857;SDS011;58975;51.978;8.472;2022-11-06T01:52:32;10.23;;;4.25;;
4857;SDS011;58975;51.978;8.472;2022-11-06T01:57:29;13.98;;;5.32;;
4857;SDS011;58975;51.978;8.472;2022-11-06T02:02:26;6.95;;;4.38;;
4857;SDS011;58975;51.978;8.472;2022-11-06T02:07:22;9.35;;;4.43;;
4857;SDS011;58975;51.978;8.472;2022-11-06T02:22:39;10.63;;;3.75;;
4857;SDS011;58975;51.978;8.472;2022-11-06T02:27:38;9.45;;;4.55;;
4857;SDS011;58975;51.978;8.472;2022-11-06T02:37:40;5.53;;;4.53;;
4857;SDS011;58975;51.978;8.472;2022-11-06T02:42:42;8.57;;;4.35;;
4857;SDS011;58975;51.978;8.472;2022-11-06T02:47:44;8.15;;;4.70;;
4857;SDS011;58975;51.978;8.472;2022-11-06T02:52:56;7.00;;;4.60;;
4857;SDS011;58975;51.978;8.472;2022-11-06T02:57:59;7.55;;;4.68;;
4857;SDS011;58975;51.978;8.472;2022-11-06T03:03:35;9.45;;;4.20;;
4857;SDS011;58975;51.978;8.472;2022-11-06T03:08:32;8.23;;;4.65;;
4857;SDS011;58975;51.978;8.472;2022-11-06T03:18:53;6.20;;;4.00;;
4857;SDS011;58975;51.978;8.472;2022-11-06T03:24:02;11.48;;;3.90;;
4857;SDS011;58975;51.978;8.472;2022-11-06T03:29:08;8.43;;;4.20;;
4857;SDS011;58975;51.978;8.472;2022-11-06T03:34:11;5.40;;;3.67;;
4857;SDS011;58975;51.978;8.472;2022-11-06T03:39:13;11.23;;;4.10;;
4857;SDS011;58975;51.978;8.472;2022-11-06T03:44:13;12.10;;;3.55;;
4857;SDS011;58975;51.978;8.472;2022-11-06T03:49:14;9.05;;;3.58;;
4857;SDS011;58975;51.978;8.472;2022-11-06T03:54:18;5.38;;;4.18;;
4857;SDS011;58975;51.978;8.472;2022-11-06T03:59:18;8.32;;;4.05;;
4857;SDS011;58975;51.978;8.472;2022-11-06T04:05:02;6.20;;;3.88;;
4857;SDS011;58975;51.978;8.472;2022-11-06T04:09:46;8.63;;;3.55;;
4857;SDS011;58975;51.978;8.472;2022-11-06T04:15:07;5.65;;;3.08;;
4857;SDS011;58975;51.978;8.472;2022-11-06T04:20:11;5.50;;;2.97;;
4857;SDS011;58975;51.978;8.472;2022-11-06T04:25:34;8.25;;;3.00;;
4857;SDS011;58975;51.978;8.472;2022-11-06T04:41:32;9.50;;;3.75;;
4857;SDS011;58975;51.978;8.472;2022-11-06T04:47:04;6.22;;;2.40;;
4857;SDS011;58975;51.978;8.472;2022-11-06T04:52:03;6.82;;;3.25;;
4857;SDS011;58975;51.978;8.472;2022-11-06T04:57:03;7.88;;;3.33;;
4857;SDS011;58975;51.978;8.472;2022-11-06T05:02:00;9.90;;;2.85;;
4857;SDS011;58975;51.978;8.472;2022-11-06T05:06:56;10.82;;;2.88;;
4857;SDS011;58975;51.978;8.472;2022-11-06T05:11:53;12.32;;;3.08;;
4857;SDS011;58975;51.978;8.472;2022-11-06T05:16:49;5.20;;;2.40;;
4857;SDS011;58975;51.978;8.472;2022-11-06T05:21:46;10.05;;;2.85;;
4857;SDS011;58975;51.978;8.472;2022-11-06T05:27:00;6.40;;;2.60;;
4857;SDS011;58975;51.978;8.472;2022-11-06T05:31:57;7.63;;;2.70;;
4857;SDS011;58975;51.978;8.472;2022-11-06T05:36:53;8.55;;;2.65;;
4857;SDS011;58975;51.978;8.472;2022-11-06T05:41:50;8.90;;;2.70;;
4857;SDS011;58975;51.978;8.472;2022-11-06T05:46:46;6.30;;;2.50;;
4857;SDS011;58975;51.978;8.472;2022-11-06T05:56:41;11.50;;;3.50;;
4857;SDS011;58975;51.978;8.472;2022-11-06T06:01:38;5.53;;;2.03;;
4857;SDS011;58975;51.978;8.472;2022-11-06T06:06:34;8.05;;;2.92;;
4857;SDS011;58975;51.978;8.472;2022-11-06T06:11:31;7.63;;;2.85;;
4857;SDS011;58975;51.978;8.472;2022-11-06T06:16:28;11.00;;;3.83;;
4857;SDS011;58975;51.978;8.472;2022-11-06T06:21:24;6.85;;;2.30;;
4857;SDS011;58975;51.978;8.472;2022-11-06T06:26:20;3.47;;;2.30;;
4857;SDS011;58975;51.978;8.472;2022-11-06T06:31:17;5.40;;;1.90;;
4857;SDS011;58975;51.978;8.472;2022-11-06T06:36:15;5.82;;;3.03;;
4857;SDS011;58975;51.978;8.472;2022-11-06T06:41:11;8.35;;;2.20;;
4857;SDS011;58975;51.978;8.472;2022-11-06T06:46:08;4.18;;;2.05;;
4857;SDS011;58975;51.978;8.472;2022-11-06T06:51:05;8.82;;;2.38;;
4857;SDS011;58975;51.978;8.472;2022-11-06T06:56:03;5.35;;;2.17;;
4857;SDS011;58975;51.978;8.472;2022-11-06T07:01:00;4.55;;;2.38;;
4857;SDS011;58975;51.978;8.472;2022-11-06T07:05:58;10.43;;;2.28;;
4857;SDS011;58975;51.978;8.472;2022-11-06T07:11:01;5.72;;;2.45;;
4857;SDS011;58975;51.978;8.472;2022-11-06T07:21:02;6.72;;;1.85;;
4857;SDS011;58975;51.978;8.472;2022-11-06T07:26:00;7.10;;;1.98;;
4857;SDS011;58975;51.978;8.472;2022-11-06T07:30:58;8.57;;;2.28;;
4857;SDS011;58975;51.978;8.472;2022-11-06T07:40:59;9.07;;;2.42;;
4857;SDS011;58975;51.978;8.472;2022-11-06T07:45:57;6.05;;;2.13;;
4857;SDS011;58975;51.978;8.472;2022-11-06T07:50:55;4.00;;;1.70;;
4857;SDS011;58975;51.978;8.472;2022-11-06T07:55:53;5.05;;;1.63;;
4857;SDS011;58975;51.978;8.472;2022-11-06T08:00:51;7.72;;;1.90;;
4857;SDS011;58975;51.978;8.472;2022-11-06T08:05:49;2.70;;;1.83;;
4857;SDS011;58975;51.978;8.472;2022-11-06T08:10:46;8.27;;;2.22;;
4857;SDS011;58975;51.978;8.472;2022-11-06T08:15:42;4.78;;;1.73;;
4857;SDS011;58975;51.978;8.472;2022-11-06T08:20:39;3.75;;;2.35;;
4857;SDS011;58975;51.978;8.472;2022-11-06T08:25:36;4.45;;;1.60;;
4857;SDS011;58975;51.978;8.472;2022-11-06T08:30:33;3.88;;;1.38;;
4857;SDS011;58975;51.978;8.472;2022-11-06T08:35:29;5.55;;;1.67;;
4857;SDS011;58975;51.978;8.472;2022-11-06T08:40:26;6.03;;;1.40;;
4857;SDS011;58975;51.978;8.472;2022-11-06T08:45:26;4.20;;;1.30;;
4857;SDS011;58975;51.978;8.472;2022-11-06T08:50:22;5.35;;;2.10;;
4857;SDS011;58975;51.978;8.472;2022-11-06T08:55:19;4.63;;;1.98;;
4857;SDS011;58975;51.978;8.472;2022-11-06T09:00:15;2.08;;;1.23;;
4857;SDS011;58975;51.978;8.472;2022-11-06T09:05:12;6.30;;;1.85;;
4857;SDS011;58975;51.978;8.472;2022-11-06T09:10:08;6.45;;;1.73;;
4857;SDS011;58975;51.978;8.472;2022-11-06T09:15:05;4.65;;;1.85;;
4857;SDS011;58975;51.978;8.472;2022-11-06T09:20:02;3.50;;;1.52;;
4857;SDS011;58975;51.978;8.472;2022-11-06T09:24:59;5.25;;;2.83;;
4857;SDS011;58975;51.978;8.472;2022-11-06T09:29:59;4.95;;;1.73;;
4857;SDS011;58975;51.978;8.472;2022-11-06T09:34:56;3.17;;;1.52;;
4857;SDS011;58975;51.978;8.472;2022-11-06T09:39:52;2.30;;;1.35;;
4857;SDS011;58975;51.978;8.472;2022-11-06T09:45:02;1.67;;;0.90;;
4857;SDS011;58975;51.978;8.472;2022-11-06T09:50:05;3.67;;;1.17;;
4857;SDS011;58975;51.978;8.472;2022-11-06T10:00:16;4.63;;;1.20;;
4857;SDS011;58975;51.978;8.472;2022-11-06T10:05:26;1.70;;;1.02;;
4857;SDS011;58975;51.978;8.472;2022-11-06T10:10:39;5.30;;;1.20;;
4857;SDS011;58975;51.978;8.472;2022-11-06T10:15:49;3.88;;;1.20;;
4857;SDS011;58975;51.978;8.472;2022-11-06T10:36:10;3.47;;;1.45;;
4857;SDS011;58975;51.978;8.472;2022-11-06T10:41:32;4.18;;;1.30;;
4857;SDS011;58975;51.978;8.472;2022-11-06T10:46:35;8.93;;;1.85;;
4857;SDS011;58975;51.978;8.472;2022-11-06T10:51:48;7.78;;;1.70;;
4857;SDS011;58975;51.978;8.472;2022-11-06T10:57:00;4.63;;;1.38;;
4857;SDS011;58975;51.978;8.472;2022-11-06T11:02:25;2.38;;;1.33;;
4857;SDS011;58975;51.978;8.472;2022-11-06T11:07:28;1.48;;;1.10;;
4857;SDS011;58975;51.978;8.472;2022-11-06T11:12:29;4.80;;;1.20;;
4857;SDS011;58975;51.978;8.472;2022-11-06T11:17:27;4.03;;;1.33;;
4857;SDS011;58975;51.978;8.472;2022-11-06T11:22:24;2.45;;;1.65;;
4857;SDS011;58975;51.978;8.472;2022-11-06T11:27:28;3.00;;;1.60;;
4857;SDS011;58975;51.978;8.472;2022-11-06T11:32:28;4.53;;;1.80;;
4857;SDS011;58975;51.978;8.472;2022-11-06T11:37:27;3.47;;;1.90;;
4857;SDS011;58975;51.978;8.472;2022-11-06T11:42:27;4.03;;;1.25;;
4857;SDS011;58975;51.978;8.472;2022-11-06T11:47:25;1.80;;;1.40;;
4857;SDS011;58975;51.978;8.472;2022-11-06T11:52:21;5.78;;;1.92;;
4857;SDS011;58975;51.978;8.472;2022-11-06T11:57:18;5.63;;;2.25;;
4857;SDS011;58975;51.978;8.472;2022-11-06T12:08:00;4.20;;;1.60;;
4857;SDS011;58975;51.978;8.472;2022-11-06T12:12:57;6.15;;;2.22;;
4857;SDS011;58975;51.978;8.472;2022-11-06T12:17:58;4.38;;;1.38;;
4857;SDS011;58975;51.978;8.472;2022-11-06T12:22:58;5.03;;;1.65;;
4857;SDS011;58975;51.978;8.472;2022-11-06T12:27:58;2.13;;;1.33;;
4857;SDS011;58975;51.978;8.472;2022-11-06T12:32:58;2.13;;;1.45;;
4857;SDS011;58975;51.978;8.472;2022-11-06T12:43:39;3.25;;;2.05;;
4857;SDS011;58975;51.978;8.472;2022-11-06T12:54:33;5.65;;;2.63;;
4857;SDS011;58975;51.978;8.472;2022-11-06T13:05:05;7.80;;;2.25;;
4857;SDS011;58975;51.978;8.472;2022-11-06T13:25:27;3.33;;;2.10;;
4857;SDS011;58975;51.978;8.472;2022-11-06T13:30:35;6.13;;;2.92;;
4857;SDS011;58975;51.978;8.472;2022-11-06T13:35:33;3.72;;;2.28;;
4857;SDS011;58975;51.978;8.472;2022-11-06T13:40:34;6.53;;;2.72;;
4857;SDS011;58975;51.978;8.472;2022-11-06T13:45:40;6.50;;;2.75;;
4857;SDS011;58975;51.978;8.472;2022-11-06T13:50:46;4.18;;;2.28;;
4857;SDS011;58975;51.978;8.472;2022-11-06T13:55:54;5.07;;;2.85;;
4857;SDS011;58975;51.978;8.472;2022-11-06T14:06:20;7.53;;;2.33;;
4857;SDS011;58975;51.978;8.472;2022-11-06T14:11:20;3.47;;;2.40;;
4857;SDS011;58975;51.978;8.472;2022-11-06T14:26:39;5.00;;;2.35;;
4857;SDS011;58975;51.978;8.472;2022-11-06T14:31:57;5.25;;;2.03;;
4857;SDS011;58975;51.978;8.472;2022-11-06T14:42:14;6.97;;;1.83;;
4857;SDS011;58975;51.978;8.472;2022-11-06T14:47:19;4.45;;;2.15;;
4857;SDS011;58975;51.978;8.472;2022-11-06T14:52:22;5.72;;;1.83;;
4857;SDS011;58975;51.978;8.472;2022-11-06T15:02:29;4.80;;;2.10;;
4857;SDS011;58975;51.978;8.472;2022-11-06T15:07:34;3.67;;;1.90;;
4857;SDS011;58975;51.978;8.472;2022-11-06T15:18:13;4.65;;;1.95;;
4857;SDS011;58975;51.978;8.472;2022-11-06T15:23:27;6.03;;;1.80;;
4857;SDS011;58975;51.978;8.472;2022-11-06T15:28:26;4.57;;;1.70;;
4857;SDS011;58975;51.978;8.472;2022-11-06T15:33:31;3.65;;;2.17;;
4857;SDS011;58975;51.978;8.472;2022-11-06T15:38:41;4.07;;;1.75;;
4857;SDS011;58975;51.978;8.472;2022-11-06T15:43:38;4.00;;;1.85;;
4857;SDS011;58975;51.978;8.472;2022-11-06T15:48:35;4.35;;;1.73;;
4857;SDS011;58975;51.978;8.472;2022-11-06T15:53:32;7.32;;;2.03;;
4857;SDS011;58975;51.978;8.472;2022-11-06T15:58:36;8.27;;;1.80;;
4857;SDS011;58975;51.978;8.472;2022-11-06T16:03:54;5.32;;;1.98;;
4857;SDS011;58975;51.978;8.472;2022-11-06T16:08:51;3.95;;;1.50;;
4857;SDS011;58975;51.978;8.472;2022-11-06T16:13:47;4.50;;;1.52;;
4857;SDS011;58975;51.978;8.472;2022-11-06T16:18:44;4.10;;;1.35;;
4857;SDS011;58975;51.978;8.472;2022-11-06T16:28:48;4.20;;;1.65;;
4857;SDS011;58975;51.978;8.472;2022-11-06T16:33:53;2.60;;;1.45;;
4857;SDS011;58975;51.978;8.472;2022-11-06T16:38:51;5.43;;;1.52;;
4857;SDS011;58975;51.978;8.472;2022-11-06T16:44:12;4.72;;;1.42;;
4857;SDS011;58975;51.978;8.472;2022-11-06T16:49:30;5.88;;;1.50;;
4857;SDS011;58975;51.978;8.472;2022-11-06T16:54:28;2.08;;;1.40;;
4857;SDS011;58975;51.978;8.472;2022-11-06T16:59:26;2.83;;;1.40;;
4857;SDS011;58975;51.978;8.472;2022-11-06T17:04:23;3.00;;;1.60;;
4857;SDS011;58975;51.978;8.472;2022-11-06T17:14:18;3.40;;;1.60;;
4857;SDS011;58975;51.978;8.472;2022-11-06T17:19:16;1.73;;;1.30;;
4857;SDS011;58975;51.978;8.472;2022-11-06T17:24:14;2.63;;;1.73;;
4857;SDS011;58975;51.978;8.472;2022-11-06T17:29:30;2.10;;;1.63;;
4857;SDS011;58975;51.978;8.472;2022-11-06T17:34:28;3.03;;;1.27;;
4857;SDS011;58975;51.978;8.472;2022-11-06T17:39:25;2.83;;;1.55;;
4857;SDS011;58975;51.978;8.472;2022-11-06T17:44:21;4.55;;;1.73;;
4857;SDS011;58975;51.978;8.472;2022-11-06T17:49:18;4.50;;;1.80;;
4857;SDS011;58975;51.978;8.472;2022-11-06T17:54:15;4.50;;;1.73;;
4857;SDS011;58975;51.978;8.472;2022-11-06T17:59:13;2.90;;;1.60;;
4857;SDS011;58975;51.978;8.472;2022-11-06T18:04:09;2.03;;;1.42;;
4857;SDS011;58975;51.978;8.472;2022-11-06T18:09:06;2.35;;;1.45;;
4857;SDS011;58975;51.978;8.472;2022-11-06T18:14:03;3.30;;;1.73;;
4857;SDS011;58975;51.978;8.472;2022-11-06T18:18:59;6.13;;;1.65;;
4857;SDS011;58975;51.978;8.472;2022-11-06T18:23:56;2.33;;;1.60;;
4857;SDS011;58975;51.978;8.472;2022-11-06T18:28:53;4.25;;;2.53;;
4857;SDS011;58975;51.978;8.472;2022-11-06T18:33:49;4.22;;;1.88;;
4857;SDS011;58975;51.978;8.472;2022-11-06T18:38:46;4.53;;;1.90;;
4857;SDS011;58975;51.978;8.472;2022-11-06T18:43:42;4.28;;;1.63;;
4857;SDS011;58975;51.978;8.472;2022-11-06T18:48:39;3.45;;;2.20;;
4857;SDS011;58975;51.978;8.472;2022-11-06T18:53:36;3.15;;;1.83;;
4857;SDS011;58975;51.978;8.472;2022-11-06T18:58:34;5.30;;;2.10;;
4857;SDS011;58975;51.978;8.472;2022-11-06T19:03:31;5.60;;;1.63;;
4857;SDS011;58975;51.978;8.472;2022-11-06T19:08:28;1.48;;;1.35;;
4857;SDS011;58975;51.978;8.472;2022-11-06T19:13:24;2.33;;;1.67;;
4857;SDS011;58975;51.978;8.472;2022-11-06T19:18:21;2.10;;;1.52;;
4857;SDS011;58975;51.978;8.472;2022-11-06T19:23:17;2.92;;;1.63;;
4857;SDS011;58975;51.978;8.472;2022-11-06T19:28:14;2.28;;;2.03;;
4857;SDS011;58975;51.978;8.472;2022-11-06T19:33:12;4.03;;;1.67;;
4857;SDS011;58975;51.978;8.472;2022-11-06T19:38:09;4.82;;;2.30;;
4857;SDS011;58975;51.978;8.472;2022-11-06T19:43:05;6.90;;;2.38;;
4857;SDS011;58975;51.978;8.472;2022-11-06T19:48:03;2.87;;;2.03;;
4857;SDS011;58975;51.978;8.472;2022-11-06T19:53:00;2.92;;;2.15;;
4857;SDS011;58975;51.978;8.472;2022-11-06T19:57:56;4.22;;;2.28;;
4857;SDS011;58975;51.978;8.472;2022-11-06T20:02:53;2.85;;;2.38;;
4857;SDS011;58975;51.978;8.472;2022-11-06T20:07:49;4.22;;;2.30;;
4857;SDS011;58975;51.978;8.472;2022-11-06T20:12:45;4.95;;;2.20;;
4857;SDS011;58975;51.978;8.472;2022-11-06T20:17:42;3.03;;;2.22;;
4857;SDS011;58975;51.978;8.472;2022-11-06T20:22:38;3.75;;;2.08;;
4857;SDS011;58975;51.978;8.472;2022-11-06T20:27:35;2.58;;;1.80;;
4857;SDS011;58975;51.978;8.472;2022-11-06T20:32:31;2.40;;;2.10;;
4857;SDS011;58975;51.978;8.472;2022-11-06T20:37:28;2.50;;;1.42;;
4857;SDS011;58975;51.978;8.472;2022-11-06T20:42:25;3.75;;;1.40;;
4857;SDS011;58975;51.978;8.472;2022-11-06T20:47:21;2.13;;;1.02;;
4857;SDS011;58975;51.978;8.472;2022-11-06T20:52:18;6.30;;;1.52;;
4857;SDS011;58975;51.978;8.472;2022-11-06T20:57:14;1.83;;;0.90;;
4857;SDS011;58975;51.978;8.472;2022-11-06T21:02:11;1.75;;;0.98;;
4857;SDS011;58975;51.978;8.472;2022-11-06T21:07:08;2.40;;;1.48;;
4857;SDS011;58975;51.978;8.472;2022-11-06T21:12:05;3.05;;;1.00;;
4857;SDS011;58975;51.978;8.472;2022-11-06T21:17:02;2.10;;;1.30;;
4857;SDS011;58975;51.978;8.472;2022-11-06T21:21:58;1.60;;;1.40;;
4857;SDS011;58975;51.978;8.472;2022-11-06T21:26:55;2.45;;;1.30;;
4857;SDS011;58975;51.978;8.472;2022-11-06T21:31:52;1.60;;;1.10;;
4857;SDS011;58975;51.978;8.472;2022-11-06T21:36:49;1.73;;;1.58;;
4857;SDS011;58975;51.978;8.472;2022-11-06T21:41:46;3.03;;;1.23;;
4857;SDS011;58975;51.978;8.472;2022-11-06T21:46:43;4.80;;;1.73;;
4857;SDS011;58975;51.978;8.472;2022-11-06T21:56:38;4.55;;;1.88;;
4857;SDS011;58975;51.978;8.472;2022-11-06T22:01:35;3.33;;;1.30;;
4857;SDS011;58975;51.978;8.472;2022-11-06T22:06:33;2.77;;;1.10;;
4857;SDS011;58975;51.978;8.472;2022-11-06T22:11:30;2.63;;;1.40;;
4857;SDS011;58975;51.978;8.472;2022-11-06T22:16:33;1.92;;;1.60;;
4857;SDS011;58975;51.978;8.472;2022-11-06T22:21:32;4.25;;;1.50;;
4857;SDS011;58975;51.978;8.472;2022-11-06T22:31:27;3.40;;;1.20;;
4857;SDS011;58975;51.978;8.472;2022-11-06T22:36:25;3.22;;;1.30;;
4857;SDS011;58975;51.978;8.472;2022-11-06T22:41:22;2.63;;;1.38;;
4857;SDS011;58975;51.978;8.472;2022-11-06T22:46:20;4.68;;;1.20;;
4857;SDS011;58975;51.978;8.472;2022-11-06T22:51:22;5.07;;;1.63;;
4857;SDS011;58975;51.978;8.472;2022-11-06T22:56:24;1.90;;;1.23;;
4857;SDS011;58975;51.978;8.472;2022-11-06T23:01:22;1.40;;;1.17;;
4857;SDS011;58975;51.978;8.472;2022-11-06T23:06:20;6.15;;;1.40;;
4857;SDS011;58975;51.978;8.472;2022-11-06T23:11:17;2.50;;;1.45;;
4857;SDS011;58975;51.978;8.472;2022-11-06T23:16:16;2.28;;;1.33;;
4857;SDS011;58975;51.978;8.472;2022-11-06T23:21:34;1.98;;;1.25;;
4857;SDS011;58975;51.978;8.472;2022-11-06T23:26:30;1.95;;;1.20;;
4857;SDS011;58975;51.978;8.472;2022-11-06T23:31:27;5.85;;;1.55;;
4857;SDS011;58975;51.978;8.472;2022-11-06T23:36:23;1.60;;;1.40;;
4857;SDS011;58975;51.978;8.472;2022-11-06T23:41:20;7.88;;;2.17;;
4857;SDS011;58975;51.978;8.472;2022-11-06T23:46:35;4.32;;;1.52;;
4857;SDS011;58975;51.978;8.472;2022-11-06T23:51:31;3.47;;;1.40;;
4857;SDS011;58975;51.978;8.472;2022-11-06T23:56:27;2.00;;;1.15;;
